createdAt,value
2023-02-18T00:00:51.111Z,63.78
2023-02-18T00:03:53.877Z,73.55
2023-02-18T00:06:56.126Z,70.78
2023-02-18T00:09:58.546Z,66.43
2023-02-18T00:13:01.730Z,71.38
2023-02-18T00:16:06.984Z,59.35
2023-02-18T00:19:18.568Z,72.47
2023-02-18T00:22:20.729Z,67.78
2023-02-18T00:25:22.938Z,66.50
2023-02-18T00:28:25.080Z,73.32
2023-02-18T00:31:30.972Z,60.85
2023-02-18T00:34:36.200Z,65.97
2023-02-18T00:37:39.134Z,73.30
2023-02-18T00:40:42.190Z,59.65
2023-02-18T00:43:44.658Z,71.57
2023-02-18T00:46:49.881Z,72.57
2023-02-18T00:49:52.313Z,74.00
2023-02-18T00:52:54.443Z,76.45
2023-02-18T00:55:57.117Z,75.88
2023-02-18T00:58:59.338Z,68.20
2023-02-18T01:02:01.689Z,73.68
2023-02-18T01:05:04.163Z,73.55
2023-02-18T01:08:07.715Z,72.85
2023-02-18T01:11:12.129Z,68.43
2023-02-18T01:14:14.334Z,73.85
2023-02-18T01:17:16.539Z,66.50
2023-02-18T01:20:19.546Z,68.93
2023-02-18T01:23:23.133Z,70.07
2023-02-18T01:26:25.597Z,71.28
2023-02-18T01:29:29.093Z,66.47
2023-02-18T01:32:31.341Z,57.67
2023-02-18T01:35:34.625Z,67.70
2023-02-18T01:38:37.560Z,69.78
2023-02-18T01:41:39.882Z,66.97
2023-02-18T01:44:42.097Z,68.85
2023-02-18T01:47:44.341Z,64.25
2023-02-18T01:51:10.369Z,55.80
2023-02-18T01:54:27.446Z,62.85
2023-02-18T01:57:36.702Z,66.00
2023-02-18T02:00:39.003Z,61.60
2023-02-18T02:03:41.209Z,65.22
2023-02-18T02:06:43.754Z,61.45
2023-02-18T02:09:46.867Z,64.80
2023-02-18T02:12:52.036Z,66.43
2023-02-18T02:16:04.865Z,61.50
2023-02-18T02:19:43.778Z,62.28
2023-02-18T02:23:03.857Z,61.15
2023-02-18T02:26:37.165Z,64.97
2023-02-18T02:30:03.930Z,66.35
2023-02-18T02:33:24.652Z,60.58
2023-02-18T02:36:58.087Z,63.40
2023-02-18T02:40:32.609Z,62.95
2023-02-18T02:43:48.190Z,67.47
2023-02-18T02:47:02.290Z,69.22
2023-02-18T02:50:10.273Z,62.97
2023-02-18T02:53:34.375Z,69.15
2023-02-18T02:56:36.869Z,57.95
2023-02-18T02:59:43.369Z,56.95
2023-02-18T03:03:03.786Z,55.47
2023-02-18T03:06:41.968Z,56.65
2023-02-18T03:10:02.356Z,65.80
2023-02-18T03:16:26.469Z,63.45
2023-02-18T03:19:52.950Z,55.20
2023-02-18T03:22:58.501Z,63.80
2023-02-18T03:26:04.534Z,62.25
2023-02-18T03:29:08.912Z,64.97
2023-02-18T03:32:15.261Z,61.92
2023-02-18T03:35:20.656Z,53.08
2023-02-18T03:39:03.758Z,49.45
2023-02-18T03:42:06.243Z,62.00
2023-02-18T03:45:08.588Z,61.28
2023-02-18T03:48:11.059Z,56.90
2023-02-18T03:51:13.380Z,58.55
2023-02-18T03:54:16.242Z,53.15
2023-02-18T03:57:21.774Z,62.30
2023-02-18T04:00:23.975Z,56.33
2023-02-18T04:03:26.159Z,57.28
2023-02-18T04:06:28.340Z,59.15
2023-02-18T04:09:30.643Z,62.72
2023-02-18T04:12:32.871Z,60.85
2023-02-18T04:15:35.305Z,51.70
2023-02-18T04:18:37.614Z,49.97
2023-02-18T04:21:39.833Z,58.03
2023-02-18T04:24:42.154Z,60.20
2023-02-18T04:27:44.366Z,57.63
2023-02-18T04:30:47.998Z,54.58
2023-02-18T04:33:50.205Z,53.38
2023-02-18T04:36:52.515Z,54.58
2023-02-18T04:39:54.709Z,52.20
2023-02-18T04:42:58.483Z,49.10
2023-02-18T04:46:03.503Z,52.80
2023-02-18T04:49:06.027Z,54.70
2023-02-18T04:52:08.177Z,55.78
2023-02-18T04:55:10.510Z,49.72
2023-02-18T04:58:12.767Z,47.13
2023-02-18T05:01:15.034Z,40.17
2023-02-18T05:04:17.700Z,44.78
2023-02-18T05:07:20.379Z,47.92
2023-02-18T05:10:22.899Z,48.35
2023-02-18T05:13:25.076Z,52.75
2023-02-18T05:16:27.259Z,52.13
2023-02-18T05:19:29.605Z,51.78
2023-02-18T05:22:31.849Z,51.65
2023-02-18T05:25:34.031Z,48.95
2023-02-18T05:28:36.238Z,49.92
2023-02-18T05:31:38.734Z,49.70
2023-02-18T05:34:41.088Z,48.85
2023-02-18T05:37:43.264Z,43.35
2023-02-18T05:40:45.552Z,45.50
2023-02-18T05:44:06.385Z,48.42
2023-02-18T05:47:12.380Z,47.33
2023-02-18T05:50:14.672Z,48.03
2023-02-18T05:53:17.732Z,44.15
2023-02-18T05:56:20.358Z,43.30
2023-02-18T05:59:23.189Z,37.05
2023-02-18T06:02:25.397Z,43.08
2023-02-18T06:05:27.632Z,39.80
2023-02-18T06:08:29.962Z,40.30
2023-02-18T06:11:32.730Z,41.67
2023-02-18T06:14:34.948Z,38.63
2023-02-18T06:17:37.252Z,41.58
2023-02-18T06:20:40.372Z,40.47
2023-02-18T06:23:42.589Z,44.58
2023-02-18T06:26:45.932Z,40.30
2023-02-18T06:29:48.093Z,43.58
2023-02-18T06:32:50.280Z,42.63
2023-02-18T06:36:00.682Z,37.67
2023-02-18T06:39:05.568Z,42.80
2023-02-18T06:42:07.958Z,41.63
2023-02-18T06:45:11.111Z,40.33
2023-02-18T06:48:14.413Z,38.40
2023-02-18T06:51:16.656Z,35.47
2023-02-18T06:54:19.048Z,41.70
2023-02-18T06:57:21.262Z,42.28
2023-02-18T07:00:23.592Z,45.33
2023-02-18T07:03:25.883Z,44.25
2023-02-18T07:06:28.235Z,43.45
2023-02-18T07:09:31.168Z,43.80
2023-02-18T07:12:34.475Z,44.65
2023-02-18T07:15:56.397Z,44.55
2023-02-18T07:19:05.191Z,41.72
2023-02-18T07:22:07.473Z,44.13
2023-02-18T07:25:09.780Z,42.92
2023-02-18T07:28:12.070Z,42.63
2023-02-18T07:31:14.298Z,44.03
2023-02-18T07:34:16.544Z,45.42
2023-02-18T07:37:19.879Z,46.80
2023-02-18T07:40:23.964Z,41.25
2023-02-18T07:43:26.445Z,41.05
2023-02-18T07:46:29.660Z,43.92
2023-02-18T07:49:32.352Z,44.80
2023-02-18T07:52:34.881Z,45.53
2023-02-18T07:55:49.480Z,45.58
2023-02-18T07:58:51.792Z,44.08
2023-02-18T08:01:53.927Z,42.28
2023-02-18T08:04:56.132Z,45.13
2023-02-18T08:07:58.341Z,46.30
2023-02-18T08:11:13.308Z,45.90
2023-02-18T08:14:20.371Z,38.47
2023-02-18T08:17:22.622Z,43.13
2023-02-18T08:20:24.850Z,41.72
2023-02-18T08:23:27.132Z,45.15
2023-02-18T08:26:29.590Z,43.90
2023-02-18T08:29:31.791Z,45.63
2023-02-18T08:32:34.079Z,45.65
2023-02-18T08:35:36.187Z,45.78
2023-02-18T08:38:38.448Z,44.55
2023-02-18T08:41:40.612Z,44.92
2023-02-18T08:44:42.955Z,46.75
2023-02-18T08:48:16.307Z,46.58
2023-02-18T08:51:19.834Z,45.40
2023-02-18T08:54:22.062Z,47.17
2023-02-18T08:57:24.287Z,45.92
2023-02-18T09:00:26.794Z,48.38
2023-02-18T09:03:28.987Z,40.22
2023-02-18T09:06:31.306Z,42.55
2023-02-18T09:09:33.573Z,45.55
2023-02-18T09:12:36.088Z,47.63
2023-02-18T09:15:38.389Z,45.63
2023-02-18T09:18:41.171Z,47.28
2023-02-18T09:21:43.418Z,45.53
2023-02-18T09:24:45.725Z,45.67
2023-02-18T09:27:47.959Z,42.15
2023-02-18T09:30:50.391Z,44.38
2023-02-18T09:34:03.206Z,46.72
2023-02-18T09:37:05.612Z,46.47
2023-02-18T09:40:08.642Z,43.63
2023-02-18T09:43:28.201Z,45.88
2023-02-18T09:46:37.713Z,44.43
2023-02-18T09:49:44.367Z,44.17
2023-02-18T09:52:47.610Z,39.42
2023-02-18T09:55:54.073Z,39.08
2023-02-18T09:58:59.597Z,46.15
2023-02-18T10:02:02.702Z,47.22
2023-02-18T10:05:06.519Z,46.83
2023-02-18T10:08:29.779Z,43.83
2023-02-18T10:15:23.555Z,45.45
2023-02-18T10:21:55.300Z,46.60
2023-02-18T10:25:04.174Z,44.97
2023-02-18T10:28:08.696Z,44.15
2023-02-18T10:31:21.085Z,46.47
2023-02-18T10:34:31.733Z,47.45
2023-02-18T10:38:07.824Z,45.17
2023-02-18T10:41:52.706Z,46.20
2023-02-18T10:45:16.119Z,42.65
2023-02-18T10:48:49.445Z,39.67
2023-02-18T10:52:00.455Z,45.05
2023-02-18T10:55:09.953Z,45.65
2023-02-18T10:58:37.723Z,46.80
2023-02-18T11:01:51.029Z,44.03
2023-02-18T11:04:53.435Z,47.65
2023-02-18T11:07:59.813Z,47.00
2023-02-18T11:11:16.052Z,46.63
2023-02-18T11:14:38.336Z,45.85
2023-02-18T11:17:41.903Z,44.60
2023-02-18T11:21:00.757Z,41.53
2023-02-18T11:24:16.660Z,39.33
2023-02-18T11:27:27.147Z,45.97
2023-02-18T11:30:41.949Z,46.13
2023-02-18T11:33:48.349Z,42.38
2023-02-18T11:36:52.725Z,45.83
2023-02-18T11:39:57.495Z,45.53
2023-02-18T11:43:15.977Z,42.03
2023-02-18T11:46:24.516Z,44.60
2023-02-18T11:52:48.908Z,44.58
2023-02-18T11:55:57.002Z,44.15
2023-02-18T11:59:00.887Z,42.08
2023-02-18T12:02:12.529Z,44.13
2023-02-18T12:05:21.040Z,44.10
2023-02-18T12:08:28.439Z,47.72
2023-02-18T12:11:43.488Z,47.20
2023-02-18T12:14:46.090Z,48.13
2023-02-18T12:18:34.111Z,45.72
2023-02-18T12:21:58.514Z,42.35
2023-02-18T12:25:33.280Z,46.22
2023-02-18T12:28:57.863Z,46.83
2023-02-18T12:32:21.141Z,42.72
2023-02-18T12:35:41.800Z,44.40
2023-02-18T12:39:12.821Z,44.72
2023-02-18T12:42:18.095Z,42.28
2023-02-18T12:45:20.275Z,42.97
2023-02-18T12:52:17.769Z,44.35
2023-02-18T12:55:27.930Z,45.50
2023-02-18T12:58:58.809Z,38.72
2023-02-18T13:02:40.137Z,44.30
2023-02-18T13:06:03.903Z,42.80
2023-02-18T13:09:25.932Z,42.85
2023-02-18T13:12:51.794Z,45.50
2023-02-18T13:16:02.101Z,42.42
2023-02-18T13:19:56.594Z,42.88
2023-02-18T13:23:00.629Z,42.00
2023-02-18T13:26:06.751Z,41.85
2023-02-18T13:29:11.850Z,44.42
2023-02-18T13:32:31.792Z,44.53
2023-02-18T13:35:42.816Z,43.47
2023-02-18T13:39:08.640Z,40.15
2023-02-18T13:42:18.744Z,41.05
2023-02-18T13:45:28.734Z,42.72
2023-02-18T13:48:33.762Z,42.50
2023-02-18T13:51:48.525Z,41.05
2023-02-18T13:54:52.161Z,42.13
2023-02-18T13:57:55.947Z,42.75
2023-02-18T14:01:03.841Z,43.95
2023-02-18T14:04:42.381Z,43.95
2023-02-18T14:07:51.139Z,41.63
2023-02-18T14:11:18.450Z,41.63
2023-02-18T14:14:28.485Z,42.05
2023-02-18T14:17:35.903Z,38.00
2023-02-18T14:20:41.137Z,31.90
2023-02-18T14:23:57.639Z,40.80
2023-02-18T14:27:14.751Z,41.50
2023-02-18T14:30:27.128Z,41.67
2023-02-18T14:33:32.923Z,39.88
2023-02-18T14:37:06.817Z,38.58
2023-02-18T14:40:24.960Z,41.53
2023-02-18T14:43:56.638Z,37.30
2023-02-18T14:47:29.031Z,37.78
2023-02-18T14:50:35.405Z,39.55
2023-02-18T14:53:44.704Z,40.78
2023-02-18T14:57:00.096Z,40.17
2023-02-18T15:00:06.977Z,40.17
2023-02-18T15:03:28.555Z,38.28
2023-02-18T15:06:36.336Z,36.13
2023-02-18T15:09:54.784Z,40.40
2023-02-18T15:12:59.054Z,40.10
2023-02-18T15:16:36.038Z,38.80
2023-02-18T15:19:45.341Z,39.58
2023-02-18T15:22:49.715Z,40.47
2023-02-18T15:25:54.614Z,42.00
2023-02-18T15:29:06.276Z,41.50
2023-02-18T15:32:36.071Z,37.35
2023-02-18T15:35:41.973Z,41.28
2023-02-18T15:38:45.524Z,41.50
2023-02-18T15:41:52.660Z,36.50
2023-02-18T15:45:19.571Z,40.08
2023-02-18T15:48:25.666Z,38.78
2023-02-18T15:51:32.078Z,41.38
2023-02-18T15:54:42.300Z,41.95
2023-02-18T15:57:46.273Z,36.95
2023-02-18T16:00:55.033Z,41.20
2023-02-18T16:03:57.258Z,39.55
2023-02-18T16:07:03.036Z,39.90
2023-02-18T16:10:23.590Z,39.38
2023-02-18T16:13:26.887Z,38.22
2023-02-18T16:16:33.941Z,39.22
2023-02-18T16:19:46.951Z,43.08
2023-02-18T16:23:03.910Z,42.40
2023-02-18T16:26:31.866Z,38.35
2023-02-18T16:29:41.857Z,40.58
2023-02-18T16:32:44.564Z,40.17
2023-02-18T16:35:50.362Z,42.40
2023-02-18T16:38:55.288Z,44.92
2023-02-18T16:41:57.646Z,44.20
2023-02-18T16:45:07.706Z,42.17
2023-02-18T16:48:21.242Z,43.00
2023-02-18T16:51:32.227Z,41.95
2023-02-18T16:54:36.297Z,38.97
2023-02-18T16:57:39.805Z,41.22
2023-02-18T17:00:43.777Z,41.22
2023-02-18T17:03:48.492Z,41.72
2023-02-18T17:06:51.878Z,43.55
2023-02-18T17:09:54.194Z,40.30
2023-02-18T17:12:58.309Z,40.97
2023-02-18T17:16:00.660Z,43.63
2023-02-18T17:19:05.731Z,45.00
2023-02-18T17:22:08.286Z,44.47
2023-02-18T17:25:17.907Z,41.88
2023-02-18T17:28:22.780Z,43.63
2023-02-18T17:31:31.730Z,41.90
2023-02-18T17:34:36.314Z,41.65
2023-02-18T17:37:38.475Z,44.15
2023-02-18T17:40:40.904Z,41.15
2023-02-18T17:43:43.695Z,41.80
2023-02-18T17:46:46.705Z,43.22
2023-02-18T17:49:49.067Z,43.42
2023-02-18T17:52:51.880Z,37.33
2023-02-18T17:55:55.428Z,37.00
2023-02-18T17:58:58.533Z,43.60
2023-02-18T18:02:01.242Z,44.58
2023-02-18T18:05:03.822Z,46.55
2023-02-18T18:08:07.886Z,43.65
2023-02-18T18:11:20.384Z,41.92
2023-02-18T18:14:23.277Z,37.33
2023-02-18T18:17:25.599Z,43.00
2023-02-18T18:20:30.676Z,37.58
2023-02-18T18:23:34.761Z,42.40
2023-02-18T18:26:39.677Z,43.38
2023-02-18T18:29:42.227Z,42.15
2023-02-18T18:32:44.932Z,39.65
2023-02-18T18:35:50.050Z,41.30
2023-02-18T18:38:55.907Z,39.95
2023-02-18T18:42:00.113Z,43.78
2023-02-18T18:45:05.716Z,43.20
2023-02-18T18:48:08.683Z,38.92
2023-02-18T18:51:16.758Z,41.08
2023-02-18T18:54:19.352Z,39.67
2023-02-18T18:57:21.741Z,42.75
2023-02-18T19:00:33.318Z,42.00
2023-02-18T19:03:38.407Z,43.08
2023-02-18T19:06:41.873Z,43.65
2023-02-18T19:09:51.713Z,42.65
2023-02-18T19:12:56.340Z,46.63
2023-02-18T19:16:16.489Z,43.63
2023-02-18T19:19:21.666Z,46.88
2023-02-18T19:22:24.039Z,47.22
2023-02-18T19:25:26.593Z,45.40
2023-02-18T19:28:29.384Z,48.35
2023-02-18T19:31:31.732Z,47.92
2023-02-18T19:34:35.841Z,46.30
2023-02-18T19:37:41.636Z,41.05
2023-02-18T19:40:46.091Z,47.72
2023-02-18T19:43:48.252Z,46.95
2023-02-18T19:46:50.795Z,43.75
2023-02-18T19:49:53.898Z,51.13
2023-02-18T19:52:57.679Z,46.70
2023-02-18T19:56:07.732Z,50.33
2023-02-18T19:59:09.952Z,45.72
2023-02-18T20:02:16.493Z,48.05
2023-02-18T20:05:20.499Z,51.50
2023-02-18T20:08:23.126Z,47.65
2023-02-18T20:11:26.161Z,46.35
2023-02-18T20:14:29.844Z,49.33
2023-02-18T20:17:32.169Z,52.47
2023-02-18T20:20:34.991Z,53.47
2023-02-18T20:23:38.330Z,54.15
2023-02-18T20:26:40.974Z,52.60
2023-02-18T20:29:43.360Z,51.50
2023-02-18T20:32:53.274Z,50.25
2023-02-18T20:35:57.297Z,46.28
2023-02-18T20:39:10.774Z,55.47
2023-02-18T20:42:17.898Z,52.80
2023-02-18T20:45:25.637Z,57.67
2023-02-18T20:48:30.559Z,56.05
2023-02-18T20:51:33.498Z,56.45
2023-02-18T20:54:36.167Z,55.05
2023-02-18T20:57:38.401Z,51.38
2023-02-18T21:00:41.051Z,59.63
2023-02-18T21:03:47.820Z,54.70
2023-02-18T21:06:50.748Z,55.33
2023-02-18T21:09:54.087Z,60.25
2023-02-18T21:12:57.255Z,59.75
2023-02-18T21:16:01.618Z,52.58
2023-02-18T21:19:05.018Z,51.40
2023-02-18T21:22:07.555Z,49.83
2023-02-18T21:25:10.203Z,60.45
2023-02-18T21:28:12.489Z,55.90
2023-02-18T21:31:29.833Z,61.08
2023-02-18T21:34:31.984Z,60.10
2023-02-18T21:37:39.669Z,63.15
2023-02-18T21:40:44.584Z,64.07
2023-02-18T21:43:50.232Z,59.92
2023-02-18T21:46:52.507Z,62.90
2023-02-18T21:49:55.104Z,63.42
2023-02-18T21:52:57.421Z,65.15
2023-02-18T21:56:09.932Z,57.25
2023-02-18T21:59:14.335Z,54.70
2023-02-18T22:02:21.997Z,61.70
2023-02-18T22:05:30.112Z,58.05
2023-02-18T22:08:32.627Z,63.40
2023-02-18T22:11:37.554Z,67.97
2023-02-18T22:14:40.421Z,57.88
2023-02-18T22:17:42.655Z,50.38
2023-02-18T22:20:45.970Z,55.33
2023-02-18T22:23:51.905Z,55.15
2023-02-18T22:26:54.282Z,63.30
2023-02-18T22:29:56.532Z,55.17
2023-02-18T22:32:59.481Z,53.80
2023-02-18T22:36:13.440Z,65.43
2023-02-18T22:39:16.599Z,61.60
2023-02-18T22:42:19.773Z,58.30
2023-02-18T22:45:22.261Z,64.45
2023-02-18T22:48:25.383Z,59.58
2023-02-18T22:51:31.328Z,59.60
2023-02-18T22:54:33.959Z,55.35
2023-02-18T22:57:37.625Z,64.00
2023-02-18T23:00:39.801Z,69.13
2023-02-18T23:03:45.280Z,64.00
2023-02-18T23:06:49.104Z,64.57
2023-02-18T23:09:52.939Z,64.25
2023-02-18T23:12:56.266Z,59.03
2023-02-18T23:16:04.251Z,53.78
2023-02-18T23:19:06.825Z,59.10
2023-02-18T23:22:10.850Z,60.40
2023-02-18T23:25:13.126Z,67.18
2023-02-18T23:28:15.480Z,58.47
2023-02-18T23:31:23.602Z,69.03
2023-02-18T23:34:28.721Z,64.28
2023-02-18T23:37:54.781Z,67.93
2023-02-18T23:40:57.031Z,56.72
2023-02-18T23:44:03.917Z,60.72
2023-02-18T23:47:06.337Z,59.20
2023-02-18T23:50:08.791Z,53.80
2023-02-18T23:53:10.989Z,67.20
2023-02-18T23:56:25.274Z,68.93
2023-02-18T23:59:28.605Z,61.92
